FBU70A LFPO-FMEE
Flight info
| Callsign | FBU70A |
|---|---|
| Flight time | N/A |
| Altitude | 33000 |
| Route | PILUL DCT PIMUP DCT PIXIS DCT PIBAT DCT LUSAR DCT LURAG DCT RUTOM/N0492F350 DCT SALUN N705 MMA L613 KIVIL N710 TAKRI P751 LXR M999 JDW G650 RIBAM/N0497F370 G650 RASKA/N0500F360 G650 ULONI/N0495F370 UV790 SB UR775 MOGDU UN304 APKAK/N0491F380 UN304 DENLI/N0488F390 UN304 UVENA UVENA2R |
| Aircraft | A35K/H-SDE2E3GHIJ3J4J5LM1ORWXY/LB1D1 |
Departure
| Time | N/A |
|---|---|
| Airport | Paris-Orly Airport (LFPO) |
Arrival
| Time | 2026-04-25 10:35 |
|---|---|
| Airport | Roland Garros Airport (FMEE) |
| Time | Latitude | Longitude | Altitude | Speed | Heading |
|---|---|---|---|---|---|
| 2026-04-25 06:56 | 6.99082 | 44.67735 | 37020 ft | 515 kts | 166° |
| 2026-04-25 06:56 | 6.92100 | 44.69393 | 37020 ft | 515 kts | 166° |
| 2026-04-25 06:57 | 6.85110 | 44.71053 | 37017 ft | 515 kts | 166° |
| 2026-04-25 06:57 | 6.78175 | 44.72699 | 37017 ft | 515 kts | 166° |
| 2026-04-25 06:58 | 6.71204 | 44.74354 | 37019 ft | 515 kts | 166° |
| 2026-04-25 06:58 | 6.64231 | 44.76024 | 37016 ft | 515 kts | 166° |
| 2026-04-25 06:59 | 6.57250 | 44.77709 | 37016 ft | 515 kts | 166° |
| 2026-04-25 06:59 | 6.50283 | 44.79389 | 37013 ft | 515 kts | 166° |
| 2026-04-25 07:00 | 6.43332 | 44.81062 | 37010 ft | 514 kts | 166° |
| 2026-04-25 07:00 | 6.36407 | 44.82727 | 37006 ft | 514 kts | 166° |
| 2026-04-25 07:01 | 6.29439 | 44.84402 | 37005 ft | 514 kts | 166° |
| 2026-04-25 07:01 | 6.22473 | 44.86076 | 37000 ft | 513 kts | 166° |
| 2026-04-25 07:02 | 6.17288 | 44.87322 | 37124 ft | 514 kts | 166° |
| 2026-04-25 07:02 | 6.13802 | 44.88159 | 37437 ft | 512 kts | 166° |
| 2026-04-25 07:02 | 6.10393 | 44.88978 | 37770 ft | 510 kts | 166° |
| 2026-04-25 07:02 | 6.06936 | 44.89808 | 38066 ft | 509 kts | 166° |
| 2026-04-25 07:03 | 6.03496 | 44.90634 | 38322 ft | 508 kts | 166° |
| 2026-04-25 07:03 | 6.00069 | 44.91457 | 38569 ft | 507 kts | 166° |
| 2026-04-25 07:03 | 5.96643 | 44.92280 | 38775 ft | 506 kts | 165° |
| 2026-04-25 07:03 | 5.93201 | 44.93106 | 38957 ft | 506 kts | 165° |
| 2026-04-25 07:04 | 5.89771 | 44.93929 | 38991 ft | 506 kts | 165° |
| 2026-04-25 07:04 | 5.82940 | 44.95568 | 38990 ft | 504 kts | 165° |
| 2026-04-25 07:05 | 5.76107 | 44.97208 | 38986 ft | 504 kts | 165° |
| 2026-04-25 07:05 | 5.69329 | 44.98833 | 38990 ft | 504 kts | 165° |
| 2026-04-25 07:06 | 5.62507 | 45.00469 | 38988 ft | 504 kts | 165° |
| 2026-04-25 07:06 | 5.55691 | 45.02104 | 38985 ft | 503 kts | 166° |
| 2026-04-25 07:07 | 5.48883 | 45.03735 | 38984 ft | 503 kts | 166° |
| 2026-04-25 07:07 | 5.42071 | 45.05368 | 38986 ft | 502 kts | 166° |
| 2026-04-25 07:08 | 5.36422 | 45.06721 | 38985 ft | 502 kts | 166° |
| 2026-04-25 07:08 | 5.29629 | 45.08348 | 38979 ft | 501 kts | 166° |
| 2026-04-25 07:09 | 5.22870 | 45.09967 | 38982 ft | 501 kts | 166° |
| 2026-04-25 07:09 | 5.16069 | 45.11595 | 38980 ft | 501 kts | 166° |
| 2026-04-25 07:10 | 5.09261 | 45.13134 | 38974 ft | 501 kts | 171° |
| 2026-04-25 07:10 | 5.02346 | 45.13744 | 38976 ft | 502 kts | 176° |
| 2026-04-25 07:11 | 4.95362 | 45.14118 | 38978 ft | 502 kts | 176° |
| 2026-04-25 07:11 | 4.88370 | 45.14454 | 38973 ft | 502 kts | 176° |
| 2026-04-25 07:12 | 4.81451 | 45.14799 | 38973 ft | 502 kts | 176° |
| 2026-04-25 07:12 | 4.70965 | 45.15342 | 38976 ft | 502 kts | 176° |
| 2026-04-25 07:13 | 4.63994 | 45.15705 | 38974 ft | 501 kts | 176° |
| 2026-04-25 07:13 | 4.57022 | 45.16067 | 38974 ft | 501 kts | 176° |
| 2026-04-25 07:14 | 4.50059 | 45.16428 | 38972 ft | 501 kts | 176° |
| 2026-04-25 07:14 | 4.43091 | 45.16790 | 38968 ft | 501 kts | 176° |
| 2026-04-25 07:15 | 4.36137 | 45.17151 | 38967 ft | 501 kts | 176° |
| 2026-04-25 07:15 | 4.29222 | 45.17509 | 38970 ft | 500 kts | 176° |
| 2026-04-25 07:16 | 4.22261 | 45.17870 | 38970 ft | 500 kts | 176° |
| 2026-04-25 07:16 | 4.15296 | 45.18232 | 38970 ft | 500 kts | 176° |
| 2026-04-25 07:17 | 4.08333 | 45.18593 | 38972 ft | 500 kts | 176° |
| 2026-04-25 07:17 | 4.01421 | 45.18951 | 38968 ft | 500 kts | 176° |
| 2026-04-25 07:18 | 3.94471 | 45.19311 | 38972 ft | 500 kts | 176° |
| 2026-04-25 07:18 | 3.87502 | 45.19672 | 38968 ft | 501 kts | 176° |
| 2026-04-25 07:19 | 3.80540 | 45.20033 | 38968 ft | 500 kts | 176° |
| 2026-04-25 07:19 | 3.73621 | 45.20391 | 38966 ft | 500 kts | 176° |
| 2026-04-25 07:20 | 3.66656 | 45.20752 | 38964 ft | 500 kts | 176° |
| 2026-04-25 07:20 | 3.59694 | 45.21112 | 38961 ft | 500 kts | 176° |
| 2026-04-25 07:21 | 3.52731 | 45.21473 | 38958 ft | 500 kts | 176° |
| 2026-04-25 07:21 | 3.45813 | 45.21831 | 38958 ft | 500 kts | 176° |
| 2026-04-25 07:22 | 3.38850 | 45.22191 | 38956 ft | 500 kts | 176° |
| 2026-04-25 07:22 | 3.31895 | 45.22551 | 38957 ft | 500 kts | 176° |
| 2026-04-25 07:23 | 3.24944 | 45.22911 | 38954 ft | 500 kts | 176° |
| 2026-04-25 07:23 | 3.18023 | 45.23269 | 38955 ft | 500 kts | 176° |
| 2026-04-25 07:24 | 3.11065 | 45.23629 | 38954 ft | 500 kts | 176° |
| 2026-04-25 07:24 | 3.04091 | 45.23989 | 38953 ft | 501 kts | 176° |
| 2026-04-25 07:25 | 2.97179 | 45.24347 | 38952 ft | 501 kts | 176° |
| 2026-04-25 07:25 | 2.90211 | 45.24707 | 38954 ft | 501 kts | 176° |
| 2026-04-25 07:26 | 2.83237 | 45.25068 | 38955 ft | 501 kts | 176° |
| 2026-04-25 07:26 | 2.76277 | 45.25427 | 38952 ft | 501 kts | 176° |
| 2026-04-25 07:27 | 2.69321 | 45.25787 | 38953 ft | 501 kts | 176° |
| 2026-04-25 07:27 | 2.62401 | 45.26145 | 38952 ft | 501 kts | 176° |
| 2026-04-25 07:28 | 2.55428 | 45.26505 | 38950 ft | 500 kts | 176° |
| 2026-04-25 07:28 | 2.48475 | 45.26864 | 38950 ft | 500 kts | 176° |
| 2026-04-25 07:29 | 2.41517 | 45.27224 | 38949 ft | 500 kts | 176° |
| 2026-04-25 07:29 | 2.34562 | 45.27583 | 38945 ft | 500 kts | 176° |
| 2026-04-25 07:30 | 2.27657 | 45.27939 | 38943 ft | 500 kts | 176° |
| 2026-04-25 07:30 | 2.20708 | 45.28298 | 38942 ft | 500 kts | 176° |
| 2026-04-25 07:31 | 2.13746 | 45.28658 | 38939 ft | 499 kts | 176° |
| 2026-04-25 07:31 | 2.06803 | 45.29016 | 38941 ft | 499 kts | 176° |
| 2026-04-25 07:32 | 1.99947 | 45.29939 | 38935 ft | 497 kts | 163° |
| 2026-04-25 07:32 | 1.93526 | 45.32329 | 38939 ft | 496 kts | 156° |
| 2026-04-25 07:33 | 1.87181 | 45.35054 | 38938 ft | 496 kts | 155° |
| 2026-04-25 07:33 | 1.80847 | 45.37824 | 38939 ft | 496 kts | 155° |
| 2026-04-25 07:34 | 1.74513 | 45.40569 | 38937 ft | 496 kts | 156° |
| 2026-04-25 07:34 | 1.68207 | 45.43281 | 38936 ft | 496 kts | 156° |
| 2026-04-25 07:35 | 1.61865 | 45.46003 | 38936 ft | 496 kts | 156° |
| 2026-04-25 07:35 | 1.55498 | 45.48737 | 38938 ft | 497 kts | 156° |
| 2026-04-25 07:36 | 1.49129 | 45.51473 | 38935 ft | 498 kts | 156° |
| 2026-04-25 07:36 | 1.42745 | 45.54216 | 38935 ft | 499 kts | 156° |
| 2026-04-25 07:37 | 1.36392 | 45.56944 | 38937 ft | 500 kts | 156° |
| 2026-04-25 07:37 | 1.29984 | 45.59696 | 38936 ft | 501 kts | 157° |
| 2026-04-25 07:38 | 1.23581 | 45.62446 | 38934 ft | 501 kts | 157° |
| 2026-04-25 07:38 | 1.17169 | 45.65199 | 38932 ft | 501 kts | 157° |
| 2026-04-25 07:39 | 1.10804 | 45.67932 | 38934 ft | 501 kts | 157° |
| 2026-04-25 07:39 | 1.04393 | 45.70685 | 38934 ft | 501 kts | 157° |
| 2026-04-25 07:40 | 0.97975 | 45.73441 | 38933 ft | 502 kts | 157° |
| 2026-04-25 07:40 | 0.91547 | 45.76200 | 38936 ft | 503 kts | 157° |
| 2026-04-25 07:41 | 0.85109 | 45.78964 | 38931 ft | 504 kts | 157° |
| 2026-04-25 07:41 | 0.78648 | 45.81738 | 38930 ft | 505 kts | 157° |
| 2026-04-25 07:42 | 0.72208 | 45.84502 | 38933 ft | 507 kts | 156° |
| 2026-04-25 07:42 | 0.65712 | 45.87291 | 38932 ft | 508 kts | 156° |
| 2026-04-25 07:43 | 0.59193 | 45.90089 | 38930 ft | 509 kts | 156° |
| 2026-04-25 07:43 | 0.52725 | 45.92874 | 38928 ft | 509 kts | 156° |
| 2026-04-25 07:44 | 0.46241 | 45.95713 | 38931 ft | 508 kts | 155° |
| 2026-04-25 07:44 | 0.39764 | 45.98559 | 38929 ft | 507 kts | 155° |
| 2026-04-25 07:45 | 0.33306 | 46.01391 | 38927 ft | 506 kts | 155° |
| 2026-04-25 07:45 | 0.26892 | 46.04200 | 38927 ft | 505 kts | 155° |
| 2026-04-25 07:46 | 0.20444 | 46.07023 | 38926 ft | 505 kts | 155° |
| 2026-04-25 07:46 | 0.14000 | 46.09844 | 38926 ft | 505 kts | 155° |
| 2026-04-25 07:47 | 0.07599 | 46.12647 | 38924 ft | 505 kts | 155° |
| 2026-04-25 07:47 | 0.01164 | 46.15464 | 38924 ft | 505 kts | 155° |
| 2026-04-25 07:48 | -0.05281 | 46.18286 | 38924 ft | 505 kts | 155° |
| 2026-04-25 07:48 | -0.11720 | 46.21105 | 38926 ft | 505 kts | 155° |
| 2026-04-25 07:49 | -0.18116 | 46.23905 | 38920 ft | 505 kts | 155° |
| 2026-04-25 07:49 | -0.24564 | 46.26696 | 38923 ft | 505 kts | 156° |
| 2026-04-25 07:50 | -0.31034 | 46.29441 | 38923 ft | 505 kts | 156° |
| 2026-04-25 07:50 | -0.37511 | 46.32190 | 38922 ft | 505 kts | 156° |
| 2026-04-25 07:51 | -0.43924 | 46.34921 | 38921 ft | 505 kts | 156° |
| 2026-04-25 07:51 | -0.50394 | 46.37681 | 38921 ft | 505 kts | 156° |
| 2026-04-25 07:52 | -0.56857 | 46.40438 | 38921 ft | 505 kts | 156° |
| 2026-04-25 07:52 | -0.63330 | 46.43200 | 38919 ft | 505 kts | 156° |
| 2026-04-25 07:53 | -0.69802 | 46.45961 | 38920 ft | 506 kts | 156° |
| 2026-04-25 07:53 | -0.76243 | 46.48708 | 38918 ft | 506 kts | 156° |
| 2026-04-25 07:54 | -0.82726 | 46.51474 | 38920 ft | 507 kts | 156° |
| 2026-04-25 07:54 | -0.89224 | 46.54246 | 38917 ft | 507 kts | 156° |
| 2026-04-25 07:55 | -0.95679 | 46.57001 | 38920 ft | 508 kts | 156° |
| 2026-04-25 07:55 | -1.02183 | 46.59776 | 38920 ft | 508 kts | 156° |
| 2026-04-25 07:56 | -1.08692 | 46.62553 | 38919 ft | 508 kts | 156° |
| 2026-04-25 07:56 | -1.15199 | 46.65331 | 38921 ft | 508 kts | 156° |
| 2026-04-25 07:57 | -1.21713 | 46.68111 | 38918 ft | 508 kts | 156° |
| 2026-04-25 07:57 | -1.28229 | 46.70890 | 38917 ft | 509 kts | 156° |
| 2026-04-25 07:58 | -1.34696 | 46.73650 | 38919 ft | 508 kts | 156° |
| 2026-04-25 07:58 | -1.41201 | 46.76426 | 38919 ft | 508 kts | 156° |
| 2026-04-25 07:59 | -1.47701 | 46.79201 | 38916 ft | 507 kts | 156° |
| 2026-04-25 07:59 | -1.53103 | 46.81507 | 38917 ft | 507 kts | 156° |
| 2026-04-25 08:00 | -1.60659 | 46.84732 | 38916 ft | 507 kts | 156° |
| 2026-04-25 08:00 | -1.66104 | 46.87056 | 38919 ft | 507 kts | 156° |
| 2026-04-25 08:01 | -1.72569 | 46.89817 | 38922 ft | 508 kts | 156° |
| 2026-04-25 08:01 | -1.79079 | 46.92597 | 38918 ft | 509 kts | 156° |
| 2026-04-25 08:02 | -1.85594 | 46.95379 | 38916 ft | 509 kts | 157° |
| 2026-04-25 08:02 | -1.92131 | 46.98170 | 38915 ft | 510 kts | 157° |
| 2026-04-25 08:03 | -1.98623 | 47.00942 | 38915 ft | 511 kts | 156° |
| 2026-04-25 08:03 | -2.05164 | 47.03736 | 38918 ft | 511 kts | 156° |
| 2026-04-25 08:04 | -2.11706 | 47.06530 | 38918 ft | 511 kts | 156° |
| 2026-04-25 08:04 | -2.18256 | 47.09328 | 38915 ft | 511 kts | 156° |
| 2026-04-25 08:05 | -2.24796 | 47.12122 | 38914 ft | 511 kts | 156° |
| 2026-04-25 08:05 | -2.31333 | 47.14915 | 38916 ft | 511 kts | 156° |
| 2026-04-25 08:06 | -2.37867 | 47.17707 | 38915 ft | 511 kts | 156° |
| 2026-04-25 08:06 | -2.44402 | 47.20500 | 38914 ft | 511 kts | 156° |
| 2026-04-25 08:07 | -2.50904 | 47.23279 | 38913 ft | 511 kts | 156° |
| 2026-04-25 08:07 | -2.57446 | 47.26075 | 38913 ft | 511 kts | 156° |
| 2026-04-25 08:08 | -2.63987 | 47.28871 | 38916 ft | 511 kts | 156° |
| 2026-04-25 08:08 | -2.70530 | 47.31669 | 38915 ft | 511 kts | 156° |
| 2026-04-25 08:09 | -2.77021 | 47.34444 | 38915 ft | 511 kts | 156° |
| 2026-04-25 08:09 | -2.83560 | 47.37241 | 38917 ft | 511 kts | 156° |
| 2026-04-25 08:10 | -2.90098 | 47.40037 | 38916 ft | 511 kts | 156° |
| 2026-04-25 08:10 | -2.96640 | 47.42836 | 38917 ft | 511 kts | 156° |
| 2026-04-25 08:11 | -3.03179 | 47.45634 | 38917 ft | 511 kts | 156° |
| 2026-04-25 08:11 | -3.09672 | 47.48413 | 38914 ft | 511 kts | 156° |
| 2026-04-25 08:12 | -3.16206 | 47.51208 | 38917 ft | 511 kts | 156° |
| 2026-04-25 08:12 | -3.22765 | 47.54014 | 38918 ft | 511 kts | 156° |
| 2026-04-25 08:13 | -3.29271 | 47.56799 | 38915 ft | 511 kts | 156° |
| 2026-04-25 08:14 | -3.39073 | 47.60995 | 38915 ft | 511 kts | 156° |
| 2026-04-25 08:14 | -3.45621 | 47.63799 | 38918 ft | 511 kts | 156° |
| 2026-04-25 08:15 | -3.52156 | 47.66598 | 38913 ft | 511 kts | 156° |
| 2026-04-25 08:15 | -3.58707 | 47.69404 | 38913 ft | 511 kts | 156° |
| 2026-04-25 08:16 | -3.65209 | 47.72189 | 38917 ft | 511 kts | 156° |
| 2026-04-25 08:16 | -3.71755 | 47.74994 | 38916 ft | 511 kts | 156° |
| 2026-04-25 08:17 | -3.78297 | 47.77797 | 38914 ft | 511 kts | 155° |
| 2026-04-25 08:17 | -3.84796 | 47.80583 | 38914 ft | 511 kts | 155° |
| 2026-04-25 08:18 | -3.91339 | 47.83387 | 38916 ft | 511 kts | 155° |
| 2026-04-25 08:18 | -3.97875 | 47.86190 | 38913 ft | 511 kts | 155° |
| 2026-04-25 08:19 | -4.04421 | 47.88997 | 38914 ft | 511 kts | 155° |
| 2026-04-25 08:19 | -4.10959 | 47.91801 | 38914 ft | 511 kts | 155° |
| 2026-04-25 08:20 | -4.17511 | 47.94612 | 38914 ft | 511 kts | 156° |
| 2026-04-25 08:20 | -4.24018 | 47.97404 | 38912 ft | 511 kts | 156° |
| 2026-04-25 08:21 | -4.30554 | 48.00203 | 38916 ft | 511 kts | 156° |
| 2026-04-25 08:21 | -4.37110 | 48.03010 | 38911 ft | 511 kts | 156° |
| 2026-04-25 08:22 | -4.43620 | 48.05798 | 38912 ft | 511 kts | 156° |
| 2026-04-25 08:22 | -4.50170 | 48.08605 | 38912 ft | 511 kts | 156° |
| 2026-04-25 08:23 | -4.56717 | 48.11411 | 38915 ft | 511 kts | 156° |
| 2026-04-25 08:23 | -4.63262 | 48.14217 | 38911 ft | 512 kts | 156° |
| 2026-04-25 08:24 | -4.69811 | 48.17025 | 38911 ft | 512 kts | 156° |
| 2026-04-25 08:24 | -4.76330 | 48.19820 | 38911 ft | 512 kts | 156° |
| 2026-04-25 08:25 | -4.82890 | 48.22634 | 38911 ft | 512 kts | 156° |
| 2026-04-25 08:25 | -4.89415 | 48.25434 | 38912 ft | 512 kts | 156° |
| 2026-04-25 08:26 | -4.95973 | 48.28248 | 38911 ft | 512 kts | 156° |
| 2026-04-25 08:26 | -5.02531 | 48.31063 | 38913 ft | 512 kts | 156° |
| 2026-04-25 08:27 | -5.09056 | 48.33864 | 38912 ft | 513 kts | 156° |
| 2026-04-25 08:27 | -5.15618 | 48.36682 | 38910 ft | 513 kts | 156° |
| 2026-04-25 08:28 | -5.22181 | 48.39501 | 38913 ft | 513 kts | 156° |
| 2026-04-25 08:28 | -5.28753 | 48.42325 | 38909 ft | 513 kts | 156° |
| 2026-04-25 08:29 | -5.35323 | 48.45148 | 38909 ft | 513 kts | 156° |
| 2026-04-25 08:29 | -5.41899 | 48.47974 | 38909 ft | 514 kts | 156° |
| 2026-04-25 08:30 | -5.48472 | 48.50800 | 38909 ft | 514 kts | 156° |
| 2026-04-25 08:30 | -5.55011 | 48.53612 | 38908 ft | 514 kts | 156° |
| 2026-04-25 08:31 | -5.61601 | 48.56447 | 38909 ft | 514 kts | 156° |
| 2026-04-25 08:31 | -5.68198 | 48.59285 | 38911 ft | 515 kts | 156° |
| 2026-04-25 08:32 | -5.74761 | 48.62109 | 38908 ft | 515 kts | 156° |
| 2026-04-25 08:32 | -5.81361 | 48.64950 | 38905 ft | 515 kts | 156° |
| 2026-04-25 08:33 | -5.87951 | 48.67788 | 38905 ft | 516 kts | 156° |
| 2026-04-25 08:33 | -5.94550 | 48.70630 | 38905 ft | 516 kts | 156° |
| 2026-04-25 08:34 | -6.01143 | 48.73470 | 38904 ft | 516 kts | 156° |
| 2026-04-25 08:34 | -6.07748 | 48.76316 | 38902 ft | 517 kts | 156° |
| 2026-04-25 08:35 | -6.14357 | 48.79165 | 38903 ft | 517 kts | 156° |
| 2026-04-25 08:35 | -6.20927 | 48.81997 | 38900 ft | 517 kts | 156° |
| 2026-04-25 08:36 | -6.27539 | 48.84849 | 38899 ft | 517 kts | 156° |
| 2026-04-25 08:36 | -6.34162 | 48.87706 | 38901 ft | 517 kts | 156° |
| 2026-04-25 08:37 | -6.40778 | 48.90560 | 38901 ft | 517 kts | 156° |
| 2026-04-25 08:37 | -6.47403 | 48.93420 | 38901 ft | 517 kts | 156° |
| 2026-04-25 08:38 | -6.53991 | 48.96264 | 38901 ft | 518 kts | 156° |
| 2026-04-25 08:38 | -6.60625 | 48.99129 | 38898 ft | 518 kts | 156° |
| 2026-04-25 08:39 | -6.67255 | 49.01993 | 38899 ft | 518 kts | 156° |
| 2026-04-25 08:39 | -6.73839 | 49.04838 | 38897 ft | 518 kts | 156° |
| 2026-04-25 08:40 | -6.80476 | 49.07707 | 38899 ft | 518 kts | 156° |
| 2026-04-25 08:40 | -6.87113 | 49.10577 | 38896 ft | 518 kts | 157° |
| 2026-04-25 08:41 | -6.93714 | 49.13432 | 38896 ft | 518 kts | 157° |
| 2026-04-25 08:41 | -7.00344 | 49.16301 | 38896 ft | 519 kts | 157° |
| 2026-04-25 08:42 | -7.06978 | 49.19173 | 38896 ft | 519 kts | 157° |
| 2026-04-25 08:42 | -7.13624 | 49.22049 | 38893 ft | 519 kts | 157° |
| 2026-04-25 08:43 | -7.20263 | 49.24922 | 38893 ft | 519 kts | 157° |
| 2026-04-25 08:43 | -7.26865 | 49.27782 | 38896 ft | 519 kts | 157° |
| 2026-04-25 08:44 | -7.33505 | 49.30658 | 38898 ft | 519 kts | 157° |
| 2026-04-25 08:44 | -7.40156 | 49.33541 | 38890 ft | 520 kts | 157° |
| 2026-04-25 08:45 | -7.46816 | 49.36428 | 38892 ft | 520 kts | 157° |
| 2026-04-25 08:45 | -7.53473 | 49.39316 | 38893 ft | 520 kts | 157° |
| 2026-04-25 08:46 | -7.60090 | 49.42187 | 38890 ft | 520 kts | 157° |
| 2026-04-25 08:46 | -7.66748 | 49.45076 | 38891 ft | 521 kts | 157° |
| 2026-04-25 08:47 | -7.73410 | 49.47969 | 38892 ft | 521 kts | 157° |
| 2026-04-25 08:47 | -7.80083 | 49.50866 | 38888 ft | 521 kts | 157° |
| 2026-04-25 08:48 | -7.86714 | 49.53747 | 38890 ft | 522 kts | 158° |
| 2026-04-25 08:48 | -7.93385 | 49.56646 | 38884 ft | 522 kts | 158° |
| 2026-04-25 08:49 | -7.98936 | 49.59059 | 38886 ft | 522 kts | 158° |
| 2026-04-25 08:49 | -8.05610 | 49.61962 | 38886 ft | 522 kts | 158° |
| 2026-04-25 08:50 | -8.12287 | 49.64867 | 38886 ft | 522 kts | 158° |
| 2026-04-25 08:50 | -8.18967 | 49.67774 | 38886 ft | 522 kts | 158° |
| 2026-04-25 08:51 | -8.25612 | 49.70667 | 38888 ft | 523 kts | 158° |
| 2026-04-25 08:51 | -8.32292 | 49.73576 | 38885 ft | 523 kts | 158° |
| 2026-04-25 08:52 | -8.38976 | 49.76488 | 38888 ft | 523 kts | 158° |
| 2026-04-25 08:52 | -8.45667 | 49.79404 | 38888 ft | 523 kts | 158° |
| 2026-04-25 08:53 | -8.52322 | 49.82306 | 38889 ft | 523 kts | 158° |
| 2026-04-25 08:53 | -8.59009 | 49.85223 | 38885 ft | 523 kts | 158° |
| 2026-04-25 08:54 | -8.65707 | 49.88145 | 38890 ft | 523 kts | 158° |
| 2026-04-25 08:54 | -8.72394 | 49.91064 | 38888 ft | 523 kts | 158° |
| 2026-04-25 08:55 | -8.79085 | 49.93986 | 38887 ft | 523 kts | 158° |
| 2026-04-25 08:55 | -8.85728 | 49.96888 | 38887 ft | 523 kts | 158° |
| 2026-04-25 08:56 | -8.92413 | 49.99810 | 38887 ft | 523 kts | 158° |
| 2026-04-25 08:56 | -8.99092 | 50.02729 | 38892 ft | 523 kts | 158° |
| 2026-04-25 08:57 | -9.05776 | 50.05653 | 38891 ft | 523 kts | 158° |
| 2026-04-25 08:57 | -9.12457 | 50.08576 | 38892 ft | 522 kts | 158° |
| 2026-04-25 08:58 | -9.19086 | 50.11478 | 38894 ft | 522 kts | 158° |
| 2026-04-25 08:58 | -9.25747 | 50.14395 | 38890 ft | 522 kts | 158° |
| 2026-04-25 08:59 | -9.32418 | 50.17317 | 38893 ft | 521 kts | 159° |
| 2026-04-25 08:59 | -9.39081 | 50.20238 | 38891 ft | 521 kts | 159° |
| 2026-04-25 09:00 | -9.45728 | 50.23152 | 38884 ft | 520 kts | 159° |
| 2026-04-25 09:00 | -9.52335 | 50.26050 | 38893 ft | 520 kts | 159° |
| 2026-04-25 09:01 | -9.58974 | 50.28963 | 38895 ft | 520 kts | 159° |
| 2026-04-25 09:01 | -9.65612 | 50.31878 | 38892 ft | 519 kts | 159° |
| 2026-04-25 09:02 | -9.72226 | 50.34783 | 38895 ft | 518 kts | 159° |
| 2026-04-25 09:02 | -9.78847 | 50.37692 | 38892 ft | 517 kts | 159° |
| 2026-04-25 09:03 | -9.85460 | 50.40599 | 38889 ft | 517 kts | 159° |
| 2026-04-25 09:03 | -9.92009 | 50.43479 | 38882 ft | 516 kts | 159° |
| 2026-04-25 09:04 | -9.98604 | 50.46381 | 38896 ft | 516 kts | 159° |
| 2026-04-25 09:04 | -10.05200 | 50.49284 | 38896 ft | 516 kts | 159° |
| 2026-04-25 09:05 | -10.11786 | 50.52181 | 38890 ft | 516 kts | 159° |
| 2026-04-25 09:05 | -10.18331 | 50.55062 | 38892 ft | 515 kts | 159° |
| 2026-04-25 09:06 | -10.24918 | 50.57962 | 38890 ft | 515 kts | 159° |
| 2026-04-25 09:06 | -10.31487 | 50.60857 | 38893 ft | 514 kts | 159° |
| 2026-04-25 09:07 | -10.38052 | 50.63751 | 38881 ft | 514 kts | 159° |
| 2026-04-25 09:07 | -10.44610 | 50.66643 | 38887 ft | 513 kts | 159° |
| 2026-04-25 09:08 | -10.51163 | 50.69535 | 38889 ft | 513 kts | 159° |
| 2026-04-25 09:08 | -10.57668 | 50.72406 | 38884 ft | 513 kts | 159° |
| 2026-04-25 09:09 | -10.64222 | 50.75301 | 38887 ft | 513 kts | 159° |
| 2026-04-25 09:09 | -10.70773 | 50.78195 | 38892 ft | 512 kts | 159° |
| 2026-04-25 09:10 | -10.77284 | 50.81073 | 38902 ft | 512 kts | 159° |
| 2026-04-25 09:10 | -10.83822 | 50.83965 | 38899 ft | 512 kts | 159° |
| 2026-04-25 09:11 | -10.93635 | 50.88308 | 38889 ft | 512 kts | 159° |
| 2026-04-25 09:11 | -11.00163 | 50.91198 | 38895 ft | 512 kts | 159° |
| 2026-04-25 09:12 | -11.06691 | 50.94090 | 38893 ft | 512 kts | 159° |
| 2026-04-25 09:12 | -11.13192 | 50.96971 | 38894 ft | 515 kts | 159° |
| 2026-04-25 09:13 | -11.19820 | 50.99908 | 38888 ft | 523 kts | 159° |
| 2026-04-25 09:13 | -11.26529 | 51.02884 | 38889 ft | 526 kts | 159° |
| 2026-04-25 09:14 | -11.33243 | 51.05866 | 38900 ft | 525 kts | 159° |
| 2026-04-25 09:14 | -11.39908 | 51.08827 | 38893 ft | 525 kts | 159° |
| 2026-04-25 09:15 | -11.46624 | 51.11812 | 38896 ft | 525 kts | 159° |
| 2026-04-25 09:15 | -11.53291 | 51.14776 | 38887 ft | 525 kts | 159° |
| 2026-04-25 09:16 | -11.59991 | 51.17756 | 38893 ft | 525 kts | 159° |
| 2026-04-25 09:16 | -11.66696 | 51.20740 | 38903 ft | 525 kts | 159° |
| 2026-04-25 09:17 | -11.76754 | 51.25219 | 38889 ft | 525 kts | 159° |
| 2026-04-25 09:18 | -11.83411 | 51.28186 | 38889 ft | 525 kts | 159° |
| 2026-04-25 09:18 | -11.90109 | 51.31172 | 38896 ft | 525 kts | 159° |
| 2026-04-25 09:19 | -11.96809 | 51.34161 | 38894 ft | 525 kts | 159° |
| 2026-04-25 09:19 | -12.03504 | 51.37150 | 38893 ft | 525 kts | 159° |
| 2026-04-25 09:20 | -12.10200 | 51.40141 | 38893 ft | 525 kts | 159° |
| 2026-04-25 09:20 | -12.16854 | 51.43116 | 38895 ft | 525 kts | 159° |
| 2026-04-25 09:21 | -12.23559 | 51.46114 | 38895 ft | 525 kts | 159° |
| 2026-04-25 09:21 | -12.30251 | 51.49107 | 38894 ft | 524 kts | 159° |
| 2026-04-25 09:22 | -12.36904 | 51.52085 | 38892 ft | 524 kts | 159° |
| 2026-04-25 09:22 | -12.43600 | 51.55084 | 38896 ft | 524 kts | 159° |
| 2026-04-25 09:23 | -12.50292 | 51.58084 | 38897 ft | 524 kts | 158° |
| 2026-04-25 09:23 | -12.56928 | 51.61060 | 38895 ft | 523 kts | 158° |
| 2026-04-25 09:24 | -12.63603 | 51.64055 | 38897 ft | 523 kts | 158° |
| 2026-04-25 09:24 | -12.70273 | 51.67050 | 38897 ft | 522 kts | 158° |
| 2026-04-25 09:25 | -12.76894 | 51.70024 | 38896 ft | 521 kts | 158° |
| 2026-04-25 09:25 | -12.83546 | 51.73014 | 38898 ft | 521 kts | 158° |
| 2026-04-25 09:26 | -12.90180 | 51.75999 | 38897 ft | 520 kts | 158° |
| 2026-04-25 09:26 | -12.96812 | 51.78983 | 38899 ft | 520 kts | 158° |
| 2026-04-25 09:27 | -13.03437 | 51.81966 | 38898 ft | 519 kts | 158° |
| 2026-04-25 09:27 | -13.10049 | 51.84945 | 38898 ft | 519 kts | 158° |
| 2026-04-25 09:28 | -13.16622 | 51.87909 | 38900 ft | 518 kts | 158° |
| 2026-04-25 09:28 | -13.23227 | 51.90888 | 38898 ft | 518 kts | 158° |
| 2026-04-25 09:29 | -13.29835 | 51.93871 | 38901 ft | 517 kts | 158° |
| 2026-04-25 09:29 | -13.36423 | 51.96846 | 38898 ft | 517 kts | 158° |
| 2026-04-25 09:30 | -13.42980 | 51.99810 | 38896 ft | 516 kts | 158° |
| 2026-04-25 09:30 | -13.49567 | 52.02793 | 38901 ft | 516 kts | 158° |
| 2026-04-25 09:31 | -13.56148 | 52.05768 | 38900 ft | 516 kts | 158° |
| 2026-04-25 09:31 | -13.62686 | 52.08725 | 38900 ft | 516 kts | 158° |
| 2026-04-25 09:32 | -13.69259 | 52.11702 | 38901 ft | 516 kts | 158° |
| 2026-04-25 09:32 | -13.75844 | 52.14686 | 38901 ft | 516 kts | 158° |
| 2026-04-25 09:33 | -13.82380 | 52.17651 | 38901 ft | 516 kts | 159° |
| 2026-04-25 09:33 | -13.88953 | 52.20634 | 38901 ft | 516 kts | 159° |
| 2026-04-25 09:34 | -13.95538 | 52.23624 | 38900 ft | 517 kts | 159° |
| 2026-04-25 09:34 | -14.02133 | 52.26621 | 38900 ft | 517 kts | 159° |
| 2026-04-25 09:35 | -14.08683 | 52.29598 | 38903 ft | 517 kts | 159° |
| 2026-04-25 09:35 | -14.15269 | 52.32595 | 38901 ft | 518 kts | 159° |
| 2026-04-25 09:36 | -14.21872 | 52.35601 | 38901 ft | 518 kts | 159° |
| 2026-04-25 09:36 | -14.28470 | 52.38606 | 38901 ft | 518 kts | 159° |
| 2026-04-25 09:37 | -14.35064 | 52.41612 | 38901 ft | 518 kts | 159° |
| 2026-04-25 09:37 | -14.41624 | 52.44603 | 38900 ft | 518 kts | 159° |
| 2026-04-25 09:38 | -14.48217 | 52.47613 | 38901 ft | 518 kts | 159° |
| 2026-04-25 09:38 | -14.54807 | 52.50622 | 38904 ft | 518 kts | 159° |
| 2026-04-25 09:39 | -14.60283 | 52.53125 | 38903 ft | 517 kts | 159° |
| 2026-04-25 09:39 | -14.67933 | 52.56623 | 38902 ft | 517 kts | 159° |
| 2026-04-25 09:40 | -14.76728 | 52.60648 | 38901 ft | 517 kts | 158° |
| 2026-04-25 09:40 | -14.83273 | 52.63646 | 38902 ft | 516 kts | 158° |
| 2026-04-25 09:41 | -14.89841 | 52.66656 | 38904 ft | 516 kts | 158° |
| 2026-04-25 09:41 | -14.96423 | 52.69675 | 38903 ft | 516 kts | 158° |
| 2026-04-25 09:42 | -15.02987 | 52.72688 | 38902 ft | 516 kts | 158° |
| 2026-04-25 09:42 | -15.09553 | 52.75703 | 38903 ft | 516 kts | 158° |
| 2026-04-25 09:43 | -15.16072 | 52.78699 | 38900 ft | 515 kts | 158° |
| 2026-04-25 09:43 | -15.22634 | 52.81717 | 38904 ft | 515 kts | 158° |
| 2026-04-25 09:44 | -15.29195 | 52.84736 | 38902 ft | 515 kts | 158° |
| 2026-04-25 09:44 | -15.35763 | 52.87761 | 38906 ft | 516 kts | 158° |
| 2026-04-25 09:45 | -15.42321 | 52.90782 | 38907 ft | 516 kts | 158° |
| 2026-04-25 09:45 | -15.48839 | 52.93789 | 38908 ft | 516 kts | 158° |
| 2026-04-25 09:46 | -15.55402 | 52.96817 | 38905 ft | 516 kts | 158° |
| 2026-04-25 09:46 | -15.61976 | 52.99852 | 38902 ft | 516 kts | 158° |
| 2026-04-25 09:47 | -15.68547 | 53.02889 | 38906 ft | 516 kts | 158° |
| 2026-04-25 09:47 | -15.75079 | 53.05910 | 38906 ft | 517 kts | 158° |
| 2026-04-25 09:48 | -15.81647 | 53.08949 | 38906 ft | 517 kts | 158° |
| 2026-04-25 09:48 | -15.88218 | 53.11992 | 38907 ft | 517 kts | 158° |
| 2026-04-25 09:49 | -15.94793 | 53.15039 | 38907 ft | 517 kts | 158° |
| 2026-04-25 09:49 | -16.01334 | 53.18073 | 38910 ft | 517 kts | 158° |
| 2026-04-25 09:50 | -16.07914 | 53.21126 | 38905 ft | 517 kts | 159° |
| 2026-04-25 09:50 | -16.14496 | 53.24183 | 38905 ft | 518 kts | 159° |
| 2026-04-25 09:51 | -16.21079 | 53.27243 | 38911 ft | 518 kts | 159° |
| 2026-04-25 09:51 | -16.27618 | 53.30284 | 38911 ft | 518 kts | 159° |
| 2026-04-25 09:52 | -16.34201 | 53.33349 | 38911 ft | 518 kts | 159° |
| 2026-04-25 09:52 | -16.40804 | 53.36425 | 38914 ft | 518 kts | 159° |
| 2026-04-25 09:53 | -16.47348 | 53.39476 | 38907 ft | 518 kts | 159° |
| 2026-04-25 09:53 | -16.53939 | 53.42550 | 38910 ft | 518 kts | 159° |
| 2026-04-25 09:54 | -16.60522 | 53.45623 | 38908 ft | 518 kts | 159° |
| 2026-04-25 09:54 | -16.67113 | 53.48702 | 38913 ft | 518 kts | 159° |
| 2026-04-25 09:55 | -16.73695 | 53.51780 | 38908 ft | 518 kts | 159° |
| 2026-04-25 09:55 | -16.80290 | 53.54866 | 38909 ft | 518 kts | 159° |
| 2026-04-25 09:56 | -16.86842 | 53.57934 | 38912 ft | 518 kts | 159° |
| 2026-04-25 09:56 | -16.93427 | 53.61021 | 38908 ft | 519 kts | 159° |
| 2026-04-25 09:57 | -17.00014 | 53.64110 | 38912 ft | 519 kts | 159° |
| 2026-04-25 09:57 | -17.06606 | 53.67204 | 38911 ft | 519 kts | 159° |
| 2026-04-25 09:58 | -17.13192 | 53.70298 | 38909 ft | 518 kts | 159° |
| 2026-04-25 09:58 | -17.19781 | 53.73396 | 38913 ft | 518 kts | 159° |
| 2026-04-25 09:59 | -17.26325 | 53.76474 | 38912 ft | 518 kts | 159° |
| 2026-04-25 09:59 | -17.32919 | 53.79579 | 38911 ft | 518 kts | 159° |
| 2026-04-25 10:00 | -17.39467 | 53.82664 | 38911 ft | 518 kts | 159° |
| 2026-04-25 10:00 | -17.46046 | 53.85766 | 38914 ft | 518 kts | 159° |
| 2026-04-25 10:01 | -17.52622 | 53.88870 | 38920 ft | 518 kts | 159° |
| 2026-04-25 10:01 | -17.59194 | 53.91975 | 38915 ft | 518 kts | 159° |
| 2026-04-25 10:02 | -17.65765 | 53.95081 | 38915 ft | 518 kts | 159° |
| 2026-04-25 10:02 | -17.72343 | 53.98193 | 38914 ft | 518 kts | 159° |
| 2026-04-25 10:03 | -17.78757 | 54.01230 | 38918 ft | 518 kts | 159° |
| 2026-04-25 10:03 | -17.85322 | 54.04341 | 38917 ft | 517 kts | 159° |
| 2026-04-25 10:04 | -17.91884 | 54.07452 | 38914 ft | 517 kts | 159° |
| 2026-04-25 10:04 | -17.98441 | 54.10565 | 38914 ft | 517 kts | 159° |
| 2026-04-25 10:05 | -18.05005 | 54.13683 | 38916 ft | 517 kts | 159° |
| 2026-04-25 10:05 | -18.11532 | 54.16785 | 38915 ft | 517 kts | 159° |
| 2026-04-25 10:06 | -18.18108 | 54.19880 | 38918 ft | 517 kts | 159° |
| 2026-04-25 10:06 | -18.24680 | 54.22975 | 38916 ft | 517 kts | 159° |
| 2026-04-25 10:07 | -18.31247 | 54.26072 | 38922 ft | 516 kts | 159° |
| 2026-04-25 10:07 | -18.37766 | 54.29150 | 38914 ft | 516 kts | 159° |
| 2026-04-25 10:08 | -18.44325 | 54.32250 | 38911 ft | 516 kts | 159° |
| 2026-04-25 10:08 | -18.50881 | 54.35352 | 38914 ft | 516 kts | 159° |
| 2026-04-25 10:09 | -18.57442 | 54.38458 | 38914 ft | 516 kts | 159° |
| 2026-04-25 10:09 | -18.63980 | 54.41444 | 38914 ft | 514 kts | 162° |
| 2026-04-25 10:10 | -18.70692 | 54.44046 | 38921 ft | 513 kts | 163° |
| 2026-04-25 10:10 | -18.77385 | 54.46680 | 38916 ft | 513 kts | 162° |
| 2026-04-25 10:11 | -18.84073 | 54.49343 | 38917 ft | 513 kts | 162° |
| 2026-04-25 10:11 | -18.90718 | 54.51999 | 38918 ft | 513 kts | 162° |
| 2026-04-25 10:12 | -18.97394 | 54.54674 | 38920 ft | 513 kts | 162° |
| 2026-04-25 10:13 | -19.07414 | 54.58694 | 38919 ft | 512 kts | 162° |
| 2026-04-25 10:13 | -19.14088 | 54.61374 | 38920 ft | 512 kts | 162° |
| 2026-04-25 10:14 | -19.20717 | 54.64040 | 38847 ft | 508 kts | 162° |
| 2026-04-25 10:14 | -19.24012 | 54.65365 | 38294 ft | 505 kts | 162° |
| 2026-04-25 10:14 | -19.27304 | 54.66687 | 37589 ft | 504 kts | 162° |
| 2026-04-25 10:14 | -19.30574 | 54.68002 | 36940 ft | 502 kts | 162° |
| 2026-04-25 10:15 | -19.33796 | 54.69299 | 36300 ft | 500 kts | 161° |
| 2026-04-25 10:15 | -19.37043 | 54.70607 | 35670 ft | 498 kts | 161° |
| 2026-04-25 10:15 | -19.40281 | 54.71912 | 35028 ft | 496 kts | 161° |
| 2026-04-25 10:15 | -19.43501 | 54.73210 | 34400 ft | 495 kts | 161° |
| 2026-04-25 10:16 | -19.46717 | 54.74508 | 33737 ft | 493 kts | 161° |
| 2026-04-25 10:16 | -19.49918 | 54.75800 | 32948 ft | 493 kts | 160° |
| 2026-04-25 10:16 | -19.53129 | 54.77097 | 32050 ft | 495 kts | 160° |
| 2026-04-25 10:16 | -19.56360 | 54.78402 | 31137 ft | 498 kts | 160° |
| 2026-04-25 10:17 | -19.59613 | 54.79716 | 30277 ft | 500 kts | 160° |
| 2026-04-25 10:17 | -19.62843 | 54.81023 | 29372 ft | 487 kts | 160° |
| 2026-04-25 10:17 | -19.65965 | 54.82288 | 28469 ft | 476 kts | 160° |
| 2026-04-25 10:17 | -19.69008 | 54.83520 | 27593 ft | 469 kts | 160° |
| 2026-04-25 10:18 | -19.72038 | 54.84747 | 26741 ft | 462 kts | 160° |
| 2026-04-25 10:18 | -19.75016 | 54.85953 | 25918 ft | 455 kts | 160° |
| 2026-04-25 10:18 | -19.77954 | 54.87143 | 25113 ft | 449 kts | 160° |
| 2026-04-25 10:18 | -19.80853 | 54.88319 | 24321 ft | 443 kts | 160° |
| 2026-04-25 10:19 | -19.83722 | 54.89482 | 23563 ft | 437 kts | 160° |
| 2026-04-25 10:19 | -19.86546 | 54.90628 | 22709 ft | 431 kts | 160° |
| 2026-04-25 10:19 | -19.89303 | 54.91746 | 21952 ft | 426 kts | 160° |
| 2026-04-25 10:19 | -19.92055 | 54.92862 | 21214 ft | 421 kts | 160° |
| 2026-04-25 10:20 | -19.94780 | 54.93968 | 20497 ft | 416 kts | 159° |
| 2026-04-25 10:20 | -19.97472 | 54.95061 | 19838 ft | 412 kts | 159° |
| 2026-04-25 10:20 | -20.00152 | 54.96150 | 19288 ft | 413 kts | 159° |
| 2026-04-25 10:20 | -20.02836 | 54.97241 | 18722 ft | 412 kts | 159° |
| 2026-04-25 10:21 | -20.05511 | 54.98328 | 18163 ft | 410 kts | 158° |
| 2026-04-25 10:21 | -20.08166 | 54.99409 | 17521 ft | 407 kts | 158° |
| 2026-04-25 10:21 | -20.10772 | 55.00470 | 16909 ft | 404 kts | 158° |
| 2026-04-25 10:21 | -20.13393 | 55.01537 | 16290 ft | 402 kts | 158° |
| 2026-04-25 10:22 | -20.15997 | 55.02598 | 15679 ft | 399 kts | 158° |
| 2026-04-25 10:22 | -20.17710 | 55.03295 | 15291 ft | 397 kts | 158° |
| 2026-04-25 10:22 | -20.21130 | 55.04691 | 14615 ft | 390 kts | 158° |
| 2026-04-25 10:22 | -20.23646 | 55.05716 | 14170 ft | 384 kts | 158° |
| 2026-04-25 10:23 | -20.26119 | 55.06725 | 13706 ft | 378 kts | 158° |
| 2026-04-25 10:23 | -20.28556 | 55.07720 | 13195 ft | 372 kts | 158° |
| 2026-04-25 10:23 | -20.30961 | 55.08700 | 12694 ft | 367 kts | 158° |
| 2026-04-25 10:23 | -20.33328 | 55.09665 | 12202 ft | 362 kts | 157° |
| 2026-04-25 10:24 | -20.35636 | 55.10607 | 11715 ft | 357 kts | 157° |
| 2026-04-25 10:24 | -20.37937 | 55.11549 | 11227 ft | 352 kts | 157° |
| 2026-04-25 10:24 | -20.40215 | 55.12481 | 10766 ft | 348 kts | 157° |
| 2026-04-25 10:24 | -20.42466 | 55.13400 | 10293 ft | 343 kts | 157° |
| 2026-04-25 10:25 | -20.44683 | 55.14308 | 9835 ft | 339 kts | 157° |
| 2026-04-25 10:25 | -20.46875 | 55.15205 | 9324 ft | 335 kts | 157° |
| 2026-04-25 10:25 | -20.49042 | 55.16092 | 8831 ft | 331 kts | 157° |
| 2026-04-25 10:25 | -20.51179 | 55.16967 | 8335 ft | 327 kts | 157° |
| 2026-04-25 10:26 | -20.53263 | 55.17820 | 7857 ft | 323 kts | 157° |
| 2026-04-25 10:26 | -20.54677 | 55.18399 | 7525 ft | 321 kts | 157° |
| 2026-04-25 10:26 | -20.57417 | 55.19523 | 6904 ft | 316 kts | 157° |
| 2026-04-25 10:26 | -20.59462 | 55.20361 | 6440 ft | 313 kts | 157° |
| 2026-04-25 10:27 | -20.61486 | 55.21191 | 5951 ft | 310 kts | 157° |
| 2026-04-25 10:27 | -20.62821 | 55.21739 | 5624 ft | 308 kts | 157° |
| 2026-04-25 10:27 | -20.64814 | 55.22556 | 5139 ft | 305 kts | 157° |
| 2026-04-25 10:27 | -20.66789 | 55.23366 | 4659 ft | 302 kts | 157° |
| 2026-04-25 10:28 | -20.68727 | 55.24161 | 4171 ft | 299 kts | 157° |
| 2026-04-25 10:28 | -20.71282 | 55.25211 | 3528 ft | 296 kts | 157° |
| 2026-04-25 10:28 | -20.72564 | 55.25736 | 3233 ft | 285 kts | 157° |
| 2026-04-25 10:28 | -20.74352 | 55.26466 | 3028 ft | 268 kts | 157° |
| 2026-04-25 10:29 | -20.76018 | 55.27205 | 2993 ft | 251 kts | 152° |
| 2026-04-25 10:29 | -20.77510 | 55.28042 | 2992 ft | 233 kts | 144° |
| 2026-04-25 10:29 | -20.78650 | 55.29159 | 2984 ft | 214 kts | 124° |
| 2026-04-25 10:29 | -20.79272 | 55.30510 | 3001 ft | 200 kts | 111° |
| 2026-04-25 10:30 | -20.79800 | 55.31878 | 3016 ft | 198 kts | 114° |
| 2026-04-25 10:30 | -20.80381 | 55.33186 | 3026 ft | 190 kts | 116° |
| 2026-04-25 10:30 | -20.80966 | 55.34432 | 3029 ft | 186 kts | 116° |
| 2026-04-25 10:30 | -20.81550 | 55.35674 | 2978 ft | 187 kts | 116° |
| 2026-04-25 10:31 | -20.82123 | 55.36898 | 2783 ft | 180 kts | 116° |
| 2026-04-25 10:31 | -20.82668 | 55.38071 | 2521 ft | 170 kts | 116° |
| 2026-04-25 10:31 | -20.83177 | 55.39166 | 2306 ft | 159 kts | 117° |
| 2026-04-25 10:31 | -20.83655 | 55.40189 | 2095 ft | 148 kts | 117° |
| 2026-04-25 10:32 | -20.84092 | 55.41125 | 1916 ft | 134 kts | 116° |
| 2026-04-25 10:32 | -20.84495 | 55.41990 | 1769 ft | 128 kts | 115° |
| 2026-04-25 10:32 | -20.84892 | 55.42844 | 1617 ft | 128 kts | 115° |
| 2026-04-25 10:32 | -20.85291 | 55.43700 | 1444 ft | 129 kts | 116° |
| 2026-04-25 10:33 | -20.85694 | 55.44565 | 1274 ft | 131 kts | 116° |
| 2026-04-25 10:33 | -20.86101 | 55.45438 | 1090 ft | 132 kts | 116° |
| 2026-04-25 10:33 | -20.86511 | 55.46319 | 919 ft | 132 kts | 117° |
| 2026-04-25 10:33 | -20.86916 | 55.47185 | 740 ft | 127 kts | 116° |
| 2026-04-25 10:34 | -20.87301 | 55.48014 | 573 ft | 123 kts | 117° |
| 2026-04-25 10:34 | -20.87678 | 55.48823 | 410 ft | 124 kts | 117° |
| 2026-04-25 10:34 | -20.88068 | 55.49644 | 238 ft | 124 kts | 115° |
| 2026-04-25 10:34 | -20.88436 | 55.50471 | 93 ft | 123 kts | 114° |
| 2026-04-25 10:35 | -20.88802 | 55.51245 | 50 ft | 101 kts | 116° |
| 2026-04-25 10:35 | -20.89063 | 55.51792 | 56 ft | 55 kts | 117° |
| 2026-04-25 10:35 | -20.89173 | 55.52020 | 58 ft | 11 kts | 117° |
| 2026-04-25 10:35 | -20.89204 | 55.52087 | 60 ft | 10 kts | 117° |
| 2026-04-25 10:36 | -20.89235 | 55.52152 | 61 ft | 10 kts | 117° |
| 2026-04-25 10:36 | -20.89272 | 55.52213 | 64 ft | 9 kts | 143° |
| 2026-04-25 10:36 | -20.89327 | 55.52209 | 63 ft | 9 kts | 204° |
| 2026-04-25 10:36 | -20.89389 | 55.52179 | 69 ft | 11 kts | 207° |
| 2026-04-25 10:37 | -20.89395 | 55.52102 | 63 ft | 13 kts | 299° |
| 2026-04-25 10:37 | -20.89348 | 55.52006 | 62 ft | 14 kts | 295° |
| 2026-04-25 10:37 | -20.89299 | 55.51902 | 60 ft | 16 kts | 296° |
| 2026-04-25 10:37 | -20.89248 | 55.51790 | 60 ft | 17 kts | 296° |
| 2026-04-25 10:38 | -20.89192 | 55.51673 | 60 ft | 15 kts | 296° |
| 2026-04-25 10:38 | -20.89139 | 55.51559 | 55 ft | 19 kts | 296° |
| 2026-04-25 10:38 | -20.89096 | 55.51465 | 52 ft | 15 kts | 297° |
| 2026-04-25 10:38 | -20.89051 | 55.51371 | 51 ft | 14 kts | 297° |
| 2026-04-25 10:39 | -20.89018 | 55.51300 | 51 ft | 7 kts | 290° |
| 2026-04-25 10:39 | -20.89041 | 55.51253 | 50 ft | 9 kts | 218° |
| 2026-04-25 10:39 | -20.89072 | 55.51235 | 49 ft | 0 kts | 206° |